RYR4 EPGD-EKCH
Flight info
| Callsign | RYR4 |
|---|---|
| Flight time | 0h 54m |
| Altitude | 30000 |
| Route | DEXIR Y100 MALOX L621 LUSID DCT ROE M743 TIDVU |
| Aircraft | B38M/M-SDE1FGHILORVWXY/HB1 |
Departure
| Time | 2026-05-05 19:39 |
|---|---|
| Airport | Gdańsk Lech Wałęsa Airport (EPGD) |
Arrival
| Time | 2026-05-05 20:34 |
|---|---|
| Airport | Copenhagen Kastrup Airport (EKCH) |
| Time | Latitude | Longitude | Altitude | Speed | Heading |
|---|---|---|---|---|---|
| 2026-05-05 19:18 | 54.38157 | 18.46442 | 462 ft | 0 kts | 23° |
| 2026-05-05 19:30 | 54.38148 | 18.46435 | 462 ft | 2 kts | 23° |
| 2026-05-05 19:30 | 54.38133 | 18.46424 | 461 ft | 2 kts | 26° |
| 2026-05-05 19:30 | 54.38120 | 18.46407 | 462 ft | 2 kts | 64° |
| 2026-05-05 19:30 | 54.38119 | 18.46391 | 458 ft | 0 kts | 111° |
| 2026-05-05 19:31 | 54.38119 | 18.46392 | 458 ft | 0 kts | 111° |
| 2026-05-05 19:34 | 54.38118 | 18.46396 | 458 ft | 2 kts | 111° |
| 2026-05-05 19:34 | 54.38107 | 18.46446 | 461 ft | 8 kts | 111° |
| 2026-05-05 19:34 | 54.38078 | 18.46571 | 460 ft | 15 kts | 115° |
| 2026-05-05 19:35 | 54.37991 | 18.46600 | 462 ft | 9 kts | 195° |
| 2026-05-05 19:35 | 54.37922 | 18.46654 | 462 ft | 15 kts | 116° |
| 2026-05-05 19:35 | 54.37876 | 18.46868 | 459 ft | 24 kts | 112° |
| 2026-05-05 19:35 | 54.37795 | 18.47197 | 462 ft | 36 kts | 112° |
| 2026-05-05 19:36 | 54.37691 | 18.47625 | 467 ft | 39 kts | 112° |
| 2026-05-05 19:36 | 54.37586 | 18.48049 | 472 ft | 37 kts | 114° |
| 2026-05-05 19:36 | 54.37487 | 18.48439 | 479 ft | 34 kts | 113° |
| 2026-05-05 19:36 | 54.37400 | 18.48797 | 487 ft | 32 kts | 112° |
| 2026-05-05 19:37 | 54.37324 | 18.49094 | 492 ft | 23 kts | 113° |
| 2026-05-05 19:37 | 54.37238 | 18.49268 | 493 ft | 15 kts | 179° |
| 2026-05-05 19:37 | 54.37221 | 18.49261 | 495 ft | 0 kts | 209° |
| 2026-05-05 19:37 | 54.37220 | 18.49260 | 495 ft | 1 kts | 208° |
| 2026-05-05 19:38 | 54.37198 | 18.49235 | 489 ft | 8 kts | 214° |
| 2026-05-05 19:38 | 54.37152 | 18.49100 | 492 ft | 18 kts | 270° |
| 2026-05-05 19:38 | 54.37224 | 18.48764 | 492 ft | 56 kts | 293° |
| 2026-05-05 19:38 | 54.37489 | 18.47703 | 470 ft | 135 kts | 293° |
| 2026-05-05 19:39 | 54.37936 | 18.45909 | 652 ft | 183 kts | 293° |
| 2026-05-05 19:39 | 54.38437 | 18.43752 | 1328 ft | 207 kts | 292° |
| 2026-05-05 19:39 | 54.38990 | 18.41236 | 1941 ft | 243 kts | 293° |
| 2026-05-05 19:39 | 54.39681 | 18.38476 | 2877 ft | 256 kts | 295° |
| 2026-05-05 19:40 | 54.40418 | 18.35615 | 3741 ft | 265 kts | 294° |
| 2026-05-05 19:40 | 54.41147 | 18.32719 | 4891 ft | 263 kts | 293° |
| 2026-05-05 19:40 | 54.41780 | 18.29760 | 5949 ft | 264 kts | 288° |
| 2026-05-05 19:40 | 54.42366 | 18.26746 | 6925 ft | 267 kts | 288° |
| 2026-05-05 19:41 | 54.42966 | 18.23701 | 7869 ft | 270 kts | 288° |
| 2026-05-05 19:41 | 54.43574 | 18.20631 | 8836 ft | 273 kts | 287° |
| 2026-05-05 19:41 | 54.44191 | 18.17526 | 9770 ft | 276 kts | 287° |
| 2026-05-05 19:41 | 54.44821 | 18.14362 | 10520 ft | 284 kts | 287° |
| 2026-05-05 19:42 | 54.45469 | 18.11102 | 11012 ft | 300 kts | 287° |
| 2026-05-05 19:42 | 54.46165 | 18.07604 | 11480 ft | 316 kts | 287° |
| 2026-05-05 19:42 | 54.46890 | 18.03949 | 12008 ft | 329 kts | 287° |
| 2026-05-05 19:42 | 54.47633 | 18.00195 | 12827 ft | 331 kts | 286° |
| 2026-05-05 19:43 | 54.48376 | 17.96435 | 13696 ft | 334 kts | 286° |
| 2026-05-05 19:43 | 54.49128 | 17.92623 | 14411 ft | 338 kts | 286° |
| 2026-05-05 19:43 | 54.49885 | 17.88780 | 15155 ft | 340 kts | 286° |
| 2026-05-05 19:43 | 54.50645 | 17.84910 | 15903 ft | 343 kts | 286° |
| 2026-05-05 19:44 | 54.51413 | 17.80995 | 16629 ft | 346 kts | 286° |
| 2026-05-05 19:44 | 54.52176 | 17.77099 | 17345 ft | 349 kts | 286° |
| 2026-05-05 19:44 | 54.52952 | 17.73126 | 18052 ft | 351 kts | 286° |
| 2026-05-05 19:44 | 54.53731 | 17.69128 | 18678 ft | 354 kts | 286° |
| 2026-05-05 19:45 | 54.54516 | 17.65087 | 19295 ft | 356 kts | 285° |
| 2026-05-05 19:45 | 54.55303 | 17.61033 | 19909 ft | 358 kts | 285° |
| 2026-05-05 19:45 | 54.56095 | 17.56944 | 20500 ft | 360 kts | 285° |
| 2026-05-05 19:45 | 54.56891 | 17.52824 | 21091 ft | 363 kts | 285° |
| 2026-05-05 19:46 | 54.57689 | 17.48684 | 21666 ft | 365 kts | 285° |
| 2026-05-05 19:46 | 54.58484 | 17.44555 | 22247 ft | 367 kts | 285° |
| 2026-05-05 19:46 | 54.59290 | 17.40355 | 22805 ft | 370 kts | 285° |
| 2026-05-05 19:46 | 54.60100 | 17.36129 | 23370 ft | 372 kts | 285° |
| 2026-05-05 19:47 | 54.60916 | 17.31859 | 23847 ft | 375 kts | 284° |
| 2026-05-05 19:47 | 54.61733 | 17.27575 | 24315 ft | 376 kts | 284° |
| 2026-05-05 19:47 | 54.62551 | 17.23274 | 24786 ft | 378 kts | 284° |
| 2026-05-05 19:47 | 54.63372 | 17.18951 | 25231 ft | 380 kts | 284° |
| 2026-05-05 19:48 | 54.64187 | 17.14649 | 25658 ft | 382 kts | 284° |
| 2026-05-05 19:48 | 54.65014 | 17.10276 | 26118 ft | 383 kts | 284° |
| 2026-05-05 19:48 | 54.65842 | 17.05884 | 26541 ft | 385 kts | 284° |
| 2026-05-05 19:48 | 54.66672 | 17.01467 | 26964 ft | 387 kts | 284° |
| 2026-05-05 19:49 | 54.67507 | 16.97021 | 27381 ft | 389 kts | 284° |
| 2026-05-05 19:49 | 54.68059 | 16.94072 | 27649 ft | 390 kts | 284° |
| 2026-05-05 19:49 | 54.69179 | 16.88078 | 28180 ft | 393 kts | 284° |
| 2026-05-05 19:49 | 54.70021 | 16.83563 | 28583 ft | 394 kts | 284° |
| 2026-05-05 19:50 | 54.70862 | 16.79034 | 28970 ft | 396 kts | 284° |
| 2026-05-05 19:50 | 54.71696 | 16.74540 | 29392 ft | 397 kts | 283° |
| 2026-05-05 19:50 | 54.72536 | 16.70001 | 29886 ft | 396 kts | 283° |
| 2026-05-05 19:51 | 54.74199 | 16.60977 | 29917 ft | 392 kts | 283° |
| 2026-05-05 19:51 | 54.75849 | 16.51981 | 29913 ft | 391 kts | 283° |
| 2026-05-05 19:52 | 54.77489 | 16.42997 | 29916 ft | 391 kts | 283° |
| 2026-05-05 19:52 | 54.79111 | 16.34066 | 29913 ft | 391 kts | 283° |
| 2026-05-05 19:53 | 54.80739 | 16.25060 | 29916 ft | 391 kts | 283° |
| 2026-05-05 19:53 | 54.82355 | 16.16076 | 29916 ft | 390 kts | 283° |
| 2026-05-05 19:54 | 54.83968 | 16.07064 | 29916 ft | 390 kts | 283° |
| 2026-05-05 19:54 | 54.85562 | 15.98117 | 29917 ft | 390 kts | 283° |
| 2026-05-05 19:55 | 54.87157 | 15.89119 | 29916 ft | 390 kts | 283° |
| 2026-05-05 19:55 | 54.88746 | 15.80112 | 29918 ft | 389 kts | 282° |
| 2026-05-05 19:56 | 54.90329 | 15.71086 | 29917 ft | 389 kts | 282° |
| 2026-05-05 19:56 | 54.91893 | 15.62133 | 29915 ft | 389 kts | 282° |
| 2026-05-05 19:57 | 54.93460 | 15.53114 | 29914 ft | 388 kts | 282° |
| 2026-05-05 19:57 | 54.95017 | 15.44103 | 29914 ft | 388 kts | 282° |
| 2026-05-05 19:58 | 54.96557 | 15.35153 | 29888 ft | 382 kts | 282° |
| 2026-05-05 19:58 | 54.97303 | 15.30802 | 29794 ft | 367 kts | 282° |
| 2026-05-05 19:58 | 54.98018 | 15.26620 | 29631 ft | 355 kts | 282° |
| 2026-05-05 19:58 | 54.98716 | 15.22522 | 29160 ft | 354 kts | 282° |
| 2026-05-05 19:59 | 54.99419 | 15.18392 | 28638 ft | 358 kts | 282° |
| 2026-05-05 19:59 | 55.00128 | 15.14217 | 28166 ft | 360 kts | 282° |
| 2026-05-05 19:59 | 55.00838 | 15.10020 | 27701 ft | 359 kts | 282° |
| 2026-05-05 19:59 | 55.01541 | 15.05862 | 27224 ft | 357 kts | 282° |
| 2026-05-05 20:00 | 55.02240 | 15.01709 | 27113 ft | 357 kts | 282° |
| 2026-05-05 20:00 | 55.02931 | 14.97602 | 27003 ft | 358 kts | 282° |
| 2026-05-05 20:00 | 55.03629 | 14.93443 | 26812 ft | 357 kts | 282° |
| 2026-05-05 20:00 | 55.04324 | 14.89284 | 26643 ft | 356 kts | 282° |
| 2026-05-05 20:01 | 55.05019 | 14.85124 | 26466 ft | 355 kts | 282° |
| 2026-05-05 20:01 | 55.05708 | 14.80984 | 26294 ft | 355 kts | 282° |
| 2026-05-05 20:01 | 55.06401 | 14.76852 | 26121 ft | 355 kts | 284° |
| 2026-05-05 20:01 | 55.07421 | 14.72966 | 25965 ft | 359 kts | 292° |
| 2026-05-05 20:02 | 55.08564 | 14.69091 | 25717 ft | 358 kts | 291° |
| 2026-05-05 20:02 | 55.09696 | 14.65227 | 25308 ft | 356 kts | 292° |
| 2026-05-05 20:02 | 55.10821 | 14.61388 | 24857 ft | 354 kts | 292° |
| 2026-05-05 20:02 | 55.11939 | 14.57572 | 24403 ft | 352 kts | 292° |
| 2026-05-05 20:03 | 55.13055 | 14.53760 | 23951 ft | 350 kts | 292° |
| 2026-05-05 20:03 | 55.14163 | 14.49967 | 23517 ft | 349 kts | 292° |
| 2026-05-05 20:03 | 55.15261 | 14.46204 | 23000 ft | 347 kts | 292° |
| 2026-05-05 20:03 | 55.16355 | 14.42449 | 22545 ft | 345 kts | 292° |
| 2026-05-05 20:04 | 55.17425 | 14.38767 | 22113 ft | 343 kts | 292° |
| 2026-05-05 20:04 | 55.18506 | 14.35045 | 21685 ft | 342 kts | 292° |
| 2026-05-05 20:04 | 55.19579 | 14.31342 | 21265 ft | 340 kts | 292° |
| 2026-05-05 20:04 | 55.20643 | 14.27663 | 20846 ft | 338 kts | 292° |
| 2026-05-05 20:05 | 55.21704 | 14.23992 | 20429 ft | 337 kts | 292° |
| 2026-05-05 20:05 | 55.22757 | 14.20345 | 20024 ft | 335 kts | 292° |
| 2026-05-05 20:05 | 55.23809 | 14.16691 | 19619 ft | 334 kts | 292° |
| 2026-05-05 20:05 | 55.24852 | 14.13065 | 19207 ft | 332 kts | 292° |
| 2026-05-05 20:06 | 55.25878 | 14.09496 | 18807 ft | 331 kts | 293° |
| 2026-05-05 20:06 | 55.26912 | 14.05889 | 18349 ft | 332 kts | 293° |
| 2026-05-05 20:06 | 55.27948 | 14.02272 | 17919 ft | 330 kts | 293° |
| 2026-05-05 20:06 | 55.28975 | 13.98682 | 17483 ft | 328 kts | 293° |
| 2026-05-05 20:07 | 55.29996 | 13.95106 | 17086 ft | 326 kts | 293° |
| 2026-05-05 20:07 | 55.31011 | 13.91547 | 16673 ft | 325 kts | 293° |
| 2026-05-05 20:07 | 55.32020 | 13.88003 | 16269 ft | 323 kts | 293° |
| 2026-05-05 20:07 | 55.33023 | 13.84474 | 15867 ft | 322 kts | 293° |
| 2026-05-05 20:08 | 55.34007 | 13.81008 | 15472 ft | 321 kts | 293° |
| 2026-05-05 20:08 | 55.35002 | 13.77496 | 15068 ft | 320 kts | 293° |
| 2026-05-05 20:08 | 55.35991 | 13.74002 | 14668 ft | 319 kts | 293° |
| 2026-05-05 20:08 | 55.36978 | 13.70510 | 14274 ft | 318 kts | 294° |
| 2026-05-05 20:09 | 55.37960 | 13.67029 | 13872 ft | 317 kts | 294° |
| 2026-05-05 20:09 | 55.38935 | 13.63569 | 13429 ft | 315 kts | 294° |
| 2026-05-05 20:09 | 55.39903 | 13.60127 | 13009 ft | 312 kts | 294° |
| 2026-05-05 20:09 | 55.40860 | 13.56720 | 12591 ft | 308 kts | 293° |
| 2026-05-05 20:10 | 55.41573 | 13.53208 | 12150 ft | 303 kts | 284° |
| 2026-05-05 20:10 | 55.42156 | 13.49660 | 11759 ft | 299 kts | 285° |
| 2026-05-05 20:10 | 55.42754 | 13.46152 | 11389 ft | 299 kts | 285° |
| 2026-05-05 20:10 | 55.43357 | 13.42676 | 11003 ft | 302 kts | 285° |
| 2026-05-05 20:11 | 55.43986 | 13.39090 | 10690 ft | 300 kts | 286° |
| 2026-05-05 20:11 | 55.44586 | 13.35684 | 10545 ft | 290 kts | 286° |
| 2026-05-05 20:11 | 55.45175 | 13.32354 | 10398 ft | 279 kts | 286° |
| 2026-05-05 20:11 | 55.45676 | 13.29129 | 10217 ft | 268 kts | 275° |
| 2026-05-05 20:12 | 55.45478 | 13.25956 | 10041 ft | 258 kts | 250° |
| 2026-05-05 20:12 | 55.44774 | 13.23083 | 9784 ft | 254 kts | 247° |
| 2026-05-05 20:12 | 55.44049 | 13.20205 | 9422 ft | 259 kts | 247° |
| 2026-05-05 20:12 | 55.43299 | 13.17281 | 9060 ft | 262 kts | 246° |
| 2026-05-05 20:13 | 55.42541 | 13.14359 | 8733 ft | 262 kts | 246° |
| 2026-05-05 20:13 | 55.41788 | 13.11477 | 8407 ft | 262 kts | 246° |
| 2026-05-05 20:13 | 55.41022 | 13.08562 | 8089 ft | 262 kts | 246° |
| 2026-05-05 20:13 | 55.40258 | 13.05663 | 7761 ft | 261 kts | 246° |
| 2026-05-05 20:14 | 55.39476 | 13.02779 | 7435 ft | 261 kts | 241° |
| 2026-05-05 20:14 | 55.38244 | 13.00451 | 7078 ft | 262 kts | 217° |
| 2026-05-05 20:14 | 55.36771 | 12.98594 | 6784 ft | 259 kts | 217° |
| 2026-05-05 20:14 | 55.35310 | 12.96761 | 6467 ft | 259 kts | 216° |
| 2026-05-05 20:15 | 55.33842 | 12.94940 | 6132 ft | 264 kts | 216° |
| 2026-05-05 20:15 | 55.32422 | 12.92921 | 5855 ft | 262 kts | 231° |
| 2026-05-05 20:15 | 55.31793 | 12.91075 | 5759 ft | 260 kts | 251° |
| 2026-05-05 20:15 | 55.31556 | 12.87999 | 5673 ft | 259 kts | 277° |
| 2026-05-05 20:16 | 55.32099 | 12.85015 | 5577 ft | 257 kts | 301° |
| 2026-05-05 20:16 | 55.33096 | 12.82404 | 5489 ft | 258 kts | 306° |
| 2026-05-05 20:16 | 55.34479 | 12.78990 | 5334 ft | 257 kts | 307° |
| 2026-05-05 20:16 | 55.35188 | 12.77277 | 5278 ft | 257 kts | 308° |
| 2026-05-05 20:17 | 55.36286 | 12.74789 | 5183 ft | 257 kts | 309° |
| 2026-05-05 20:17 | 55.37379 | 12.72346 | 5065 ft | 256 kts | 309° |
| 2026-05-05 20:17 | 55.38484 | 12.69885 | 5021 ft | 256 kts | 309° |
| 2026-05-05 20:17 | 55.39592 | 12.67418 | 5011 ft | 256 kts | 309° |
| 2026-05-05 20:18 | 55.40696 | 12.64957 | 5008 ft | 256 kts | 309° |
| 2026-05-05 20:18 | 55.41780 | 12.62467 | 5001 ft | 257 kts | 303° |
| 2026-05-05 20:18 | 55.42324 | 12.59498 | 4994 ft | 258 kts | 274° |
| 2026-05-05 20:18 | 55.42014 | 12.56406 | 5006 ft | 254 kts | 246° |
| 2026-05-05 20:19 | 55.41007 | 12.53965 | 5002 ft | 242 kts | 223° |
| 2026-05-05 20:19 | 55.39761 | 12.51953 | 5011 ft | 243 kts | 223° |
| 2026-05-05 20:19 | 55.38520 | 12.49983 | 5011 ft | 244 kts | 222° |
| 2026-05-05 20:19 | 55.37257 | 12.47995 | 5004 ft | 243 kts | 222° |
| 2026-05-05 20:20 | 55.35995 | 12.46000 | 5003 ft | 243 kts | 222° |
| 2026-05-05 20:20 | 55.34738 | 12.44012 | 5003 ft | 243 kts | 222° |
| 2026-05-05 20:20 | 55.33478 | 12.42023 | 4999 ft | 244 kts | 222° |
| 2026-05-05 20:20 | 55.32223 | 12.40001 | 4772 ft | 244 kts | 219° |
| 2026-05-05 20:21 | 55.30789 | 12.38413 | 4513 ft | 242 kts | 206° |
| 2026-05-05 20:21 | 55.29288 | 12.37135 | 4259 ft | 242 kts | 205° |
| 2026-05-05 20:21 | 55.27765 | 12.35870 | 4052 ft | 241 kts | 205° |
| 2026-05-05 20:21 | 55.26353 | 12.34339 | 3997 ft | 239 kts | 226° |
| 2026-05-05 20:22 | 55.25584 | 12.31825 | 3974 ft | 235 kts | 264° |
| 2026-05-05 20:22 | 55.25843 | 12.29064 | 3880 ft | 231 kts | 298° |
| 2026-05-05 20:22 | 55.26664 | 12.26639 | 3724 ft | 232 kts | 304° |
| 2026-05-05 20:22 | 55.27539 | 12.24246 | 3481 ft | 232 kts | 305° |
| 2026-05-05 20:23 | 55.28410 | 12.21866 | 3216 ft | 230 kts | 306° |
| 2026-05-05 20:23 | 55.29580 | 12.20086 | 2895 ft | 222 kts | 343° |
| 2026-05-05 20:23 | 55.31048 | 12.20095 | 2735 ft | 207 kts | 26° |
| 2026-05-05 20:23 | 55.32031 | 12.21815 | 2844 ft | 211 kts | 66° |
| 2026-05-05 20:24 | 55.32101 | 12.24381 | 2911 ft | 219 kts | 107° |
| 2026-05-05 20:24 | 55.31156 | 12.26469 | 2950 ft | 227 kts | 148° |
| 2026-05-05 20:24 | 55.29624 | 12.27030 | 2961 ft | 232 kts | 189° |
| 2026-05-05 20:24 | 55.28193 | 12.25738 | 2964 ft | 241 kts | 229° |
| 2026-05-05 20:25 | 55.27476 | 12.23072 | 2968 ft | 247 kts | 267° |
| 2026-05-05 20:25 | 55.27816 | 12.20197 | 2973 ft | 243 kts | 303° |
| 2026-05-05 20:25 | 55.28881 | 12.17880 | 2994 ft | 245 kts | 321° |
| 2026-05-05 20:25 | 55.30353 | 12.16583 | 2997 ft | 240 kts | 353° |
| 2026-05-05 20:26 | 55.32012 | 12.16855 | 3001 ft | 238 kts | 24° |
| 2026-05-05 20:26 | 55.33227 | 12.18679 | 3004 ft | 237 kts | 57° |
| 2026-05-05 20:26 | 55.34129 | 12.21129 | 2986 ft | 239 kts | 51° |
| 2026-05-05 20:26 | 55.35243 | 12.23291 | 2997 ft | 239 kts | 44° |
| 2026-05-05 20:27 | 55.36445 | 12.25308 | 2999 ft | 239 kts | 42° |
| 2026-05-05 20:27 | 55.37679 | 12.27261 | 3005 ft | 234 kts | 41° |
| 2026-05-05 20:27 | 55.38870 | 12.29101 | 2987 ft | 220 kts | 40° |
| 2026-05-05 20:27 | 55.40030 | 12.30882 | 2284 ft | 236 kts | 40° |
| 2026-05-05 20:28 | 55.41294 | 12.32819 | 1945 ft | 235 kts | 40° |
| 2026-05-05 20:28 | 55.42474 | 12.34625 | 2021 ft | 216 kts | 40° |
| 2026-05-05 20:28 | 55.43572 | 12.36307 | 2041 ft | 199 kts | 40° |
| 2026-05-05 20:28 | 55.44570 | 12.37836 | 2072 ft | 180 kts | 40° |
| 2026-05-05 20:29 | 55.45479 | 12.39227 | 2052 ft | 170 kts | 40° |
| 2026-05-05 20:29 | 55.46378 | 12.40604 | 2048 ft | 172 kts | 40° |
| 2026-05-05 20:29 | 55.47278 | 12.41985 | 2034 ft | 171 kts | 40° |
| 2026-05-05 20:29 | 55.48179 | 12.43368 | 2016 ft | 172 kts | 40° |
| 2026-05-05 20:30 | 55.49066 | 12.44729 | 2008 ft | 171 kts | 40° |
| 2026-05-05 20:30 | 55.49963 | 12.46107 | 2009 ft | 171 kts | 40° |
| 2026-05-05 20:30 | 55.50860 | 12.47486 | 2009 ft | 171 kts | 40° |
| 2026-05-05 20:30 | 55.51762 | 12.48873 | 1952 ft | 173 kts | 40° |
| 2026-05-05 20:31 | 55.52664 | 12.50259 | 1753 ft | 171 kts | 39° |
| 2026-05-05 20:31 | 55.53541 | 12.51608 | 1541 ft | 162 kts | 40° |
| 2026-05-05 20:31 | 55.54341 | 12.52839 | 1353 ft | 142 kts | 39° |
| 2026-05-05 20:31 | 55.55035 | 12.53908 | 1183 ft | 128 kts | 39° |
| 2026-05-05 20:32 | 55.55714 | 12.54953 | 995 ft | 130 kts | 39° |
| 2026-05-05 20:32 | 55.56396 | 12.56003 | 804 ft | 130 kts | 39° |
| 2026-05-05 20:32 | 55.57083 | 12.57065 | 613 ft | 132 kts | 38° |
| 2026-05-05 20:32 | 55.57773 | 12.58124 | 438 ft | 134 kts | 38° |
| 2026-05-05 20:33 | 55.58472 | 12.59210 | 262 ft | 134 kts | 38° |
| 2026-05-05 20:33 | 55.59171 | 12.60299 | 103 ft | 134 kts | 38° |
| 2026-05-05 20:33 | 55.59835 | 12.61330 | 23 ft | 117 kts | 34° |
| 2026-05-05 20:33 | 55.60361 | 12.62100 | 23 ft | 79 kts | 41° |
| 2026-05-05 20:34 | 55.60676 | 12.62600 | 27 ft | 44 kts | 39° |
| 2026-05-05 20:34 | 55.60889 | 12.62828 | 26 ft | 31 kts | 17° |
| 2026-05-05 20:34 | 55.61099 | 12.62918 | 26 ft | 29 kts | 19° |
| 2026-05-05 20:34 | 55.61371 | 12.63300 | 28 ft | 90 kts | 41° |
| 2026-05-05 20:35 | 55.61906 | 12.64176 | 27 ft | 108 kts | 49° |
| 2026-05-05 20:35 | 55.62275 | 12.65450 | 27 ft | 128 kts | 68° |
| 2026-05-05 20:35 | 55.62235 | 12.66801 | 25 ft | 86 kts | 126° |
| 2026-05-05 20:35 | 55.61848 | 12.66997 | 19 ft | 89 kts | 207° |
| 2026-05-05 20:36 | 55.61557 | 12.66114 | 24 ft | 90 kts | 264° |
| 2026-05-05 20:36 | 55.61507 | 12.65031 | 20 ft | 83 kts | 271° |
| 2026-05-05 20:36 | 55.61282 | 12.64044 | 21 ft | 107 kts | 218° |
| 2026-05-05 20:36 | 55.60517 | 12.64050 | 26 ft | 124 kts | 174° |
| 2026-05-05 20:37 | 55.60231 | 12.64110 | 25 ft | 13 kts | 263° |
| 2026-05-05 20:37 | 55.60228 | 12.64087 | 23 ft | 0 kts | 246° |